sensor_id;sensor_type;location;lat;lon;timestamp;P1;durP1;ratioP1;P2;durP2;ratioP2
37445;SDS011;23307;51.136;14.942;2024-03-08T00:00:22;44.00;;;33.10;;
37445;SDS011;23307;51.136;14.942;2024-03-08T00:02:48;45.97;;;32.80;;
37445;SDS011;23307;51.136;14.942;2024-03-08T00:05:15;44.33;;;30.70;;
37445;SDS011;23307;51.136;14.942;2024-03-08T00:07:41;41.03;;;29.90;;
37445;SDS011;23307;51.136;14.942;2024-03-08T00:10:08;41.67;;;29.50;;
37445;SDS011;23307;51.136;14.942;2024-03-08T00:12:36;40.70;;;30.60;;
37445;SDS011;23307;51.136;14.942;2024-03-08T00:15:02;42.60;;;30.63;;
37445;SDS011;23307;51.136;14.942;2024-03-08T00:17:27;44.20;;;31.37;;
37445;SDS011;23307;51.136;14.942;2024-03-08T00:19:53;40.83;;;29.43;;
37445;SDS011;23307;51.136;14.942;2024-03-08T00:22:19;42.00;;;30.47;;
37445;SDS011;23307;51.136;14.942;2024-03-08T00:24:45;40.53;;;29.77;;
37445;SDS011;23307;51.136;14.942;2024-03-08T00:27:10;42.43;;;29.93;;
37445;SDS011;23307;51.136;14.942;2024-03-08T00:29:36;42.03;;;29.30;;
37445;SDS011;23307;51.136;14.942;2024-03-08T00:32:03;39.27;;;29.33;;
37445;SDS011;23307;51.136;14.942;2024-03-08T00:34:29;41.30;;;29.97;;
37445;SDS011;23307;51.136;14.942;2024-03-08T00:36:55;44.30;;;30.07;;
37445;SDS011;23307;51.136;14.942;2024-03-08T00:39:20;42.10;;;30.97;;
37445;SDS011;23307;51.136;14.942;2024-03-08T00:41:46;42.27;;;29.40;;
37445;SDS011;23307;51.136;14.942;2024-03-08T00:44:12;42.03;;;29.73;;
37445;SDS011;23307;51.136;14.942;2024-03-08T00:46:38;43.07;;;30.40;;
37445;SDS011;23307;51.136;14.942;2024-03-08T00:49:03;44.93;;;30.20;;
37445;SDS011;23307;51.136;14.942;2024-03-08T00:51:29;43.37;;;30.83;;
37445;SDS011;23307;51.136;14.942;2024-03-08T00:53:54;40.23;;;30.23;;
37445;SDS011;23307;51.136;14.942;2024-03-08T00:56:20;46.07;;;31.97;;
37445;SDS011;23307;51.136;14.942;2024-03-08T00:58:45;44.67;;;31.63;;
37445;SDS011;23307;51.136;14.942;2024-03-08T01:01:12;43.50;;;30.20;;
37445;SDS011;23307;51.136;14.942;2024-03-08T01:03:41;43.00;;;31.13;;
37445;SDS011;23307;51.136;14.942;2024-03-08T01:06:08;45.77;;;31.67;;
37445;SDS011;23307;51.136;14.942;2024-03-08T01:08:33;45.77;;;31.47;;
37445;SDS011;23307;51.136;14.942;2024-03-08T01:10:59;44.00;;;31.67;;
37445;SDS011;23307;51.136;14.942;2024-03-08T01:13:24;45.80;;;32.07;;
37445;SDS011;23307;51.136;14.942;2024-03-08T01:15:50;44.37;;;32.30;;
37445;SDS011;23307;51.136;14.942;2024-03-08T01:24:29;45.97;;;32.67;;
37445;SDS011;23307;51.136;14.942;2024-03-08T01:26:55;50.90;;;34.10;;
37445;SDS011;23307;51.136;14.942;2024-03-08T01:29:20;47.93;;;33.77;;
37445;SDS011;23307;51.136;14.942;2024-03-08T01:31:46;49.63;;;33.03;;
37445;SDS011;23307;51.136;14.942;2024-03-08T01:34:11;47.77;;;33.63;;
37445;SDS011;23307;51.136;14.942;2024-03-08T01:36:37;48.83;;;33.57;;
37445;SDS011;23307;51.136;14.942;2024-03-08T01:39:02;51.93;;;34.80;;
37445;SDS011;23307;51.136;14.942;2024-03-08T01:41:32;56.43;;;33.60;;
37445;SDS011;23307;51.136;14.942;2024-03-08T01:43:58;49.63;;;34.43;;
37445;SDS011;23307;51.136;14.942;2024-03-08T01:46:24;52.23;;;34.90;;
37445;SDS011;23307;51.136;14.942;2024-03-08T01:48:53;48.53;;;34.97;;
37445;SDS011;23307;51.136;14.942;2024-03-08T01:51:19;52.03;;;35.27;;
37445;SDS011;23307;51.136;14.942;2024-03-08T01:53:46;46.43;;;33.83;;
37445;SDS011;23307;51.136;14.942;2024-03-08T01:56:12;51.17;;;35.33;;
37445;SDS011;23307;51.136;14.942;2024-03-08T01:58:39;46.57;;;34.53;;
37445;SDS011;23307;51.136;14.942;2024-03-08T02:01:08;50.50;;;33.80;;
37445;SDS011;23307;51.136;14.942;2024-03-08T02:03:35;51.70;;;34.40;;
37445;SDS011;23307;51.136;14.942;2024-03-08T02:06:01;51.20;;;35.43;;
37445;SDS011;23307;51.136;14.942;2024-03-08T02:08:26;50.80;;;35.53;;
37445;SDS011;23307;51.136;14.942;2024-03-08T02:10:52;51.17;;;35.97;;
37445;SDS011;23307;51.136;14.942;2024-03-08T02:13:18;53.13;;;36.37;;
37445;SDS011;23307;51.136;14.942;2024-03-08T02:15:53;50.60;;;35.10;;
37445;SDS011;23307;51.136;14.942;2024-03-08T02:18:20;51.80;;;35.97;;
37445;SDS011;23307;51.136;14.942;2024-03-08T02:20:52;51.73;;;35.40;;
37445;SDS011;23307;51.136;14.942;2024-03-08T02:23:18;51.17;;;34.87;;
37445;SDS011;23307;51.136;14.942;2024-03-08T02:25:45;48.43;;;35.57;;
37445;SDS011;23307;51.136;14.942;2024-03-08T02:28:11;52.57;;;35.97;;
37445;SDS011;23307;51.136;14.942;2024-03-08T02:30:37;51.43;;;36.17;;
37445;SDS011;23307;51.136;14.942;2024-03-08T02:33:04;50.73;;;35.27;;
37445;SDS011;23307;51.136;14.942;2024-03-08T02:35:30;50.70;;;35.47;;
37445;SDS011;23307;51.136;14.942;2024-03-08T02:37:56;53.07;;;35.97;;
37445;SDS011;23307;51.136;14.942;2024-03-08T02:40:22;53.77;;;34.80;;
37445;SDS011;23307;51.136;14.942;2024-03-08T02:42:47;49.63;;;34.93;;
37445;SDS011;23307;51.136;14.942;2024-03-08T02:45:13;50.27;;;34.97;;
37445;SDS011;23307;51.136;14.942;2024-03-08T02:47:38;51.17;;;36.17;;
37445;SDS011;23307;51.136;14.942;2024-03-08T02:50:04;49.03;;;33.77;;
37445;SDS011;23307;51.136;14.942;2024-03-08T02:52:32;49.33;;;35.70;;
37445;SDS011;23307;51.136;14.942;2024-03-08T02:54:58;50.73;;;35.60;;
37445;SDS011;23307;51.136;14.942;2024-03-08T02:57:24;49.57;;;34.33;;
37445;SDS011;23307;51.136;14.942;2024-03-08T02:59:49;47.77;;;33.97;;
37445;SDS011;23307;51.136;14.942;2024-03-08T03:02:15;47.93;;;33.80;;
37445;SDS011;23307;51.136;14.942;2024-03-08T03:04:41;50.43;;;34.17;;
37445;SDS011;23307;51.136;14.942;2024-03-08T03:07:07;47.63;;;34.07;;
37445;SDS011;23307;51.136;14.942;2024-03-08T03:09:32;51.37;;;35.43;;
37445;SDS011;23307;51.136;14.942;2024-03-08T03:11:58;50.23;;;35.30;;
37445;SDS011;23307;51.136;14.942;2024-03-08T03:14:24;50.20;;;33.90;;
37445;SDS011;23307;51.136;14.942;2024-03-08T03:16:51;51.10;;;35.37;;
37445;SDS011;23307;51.136;14.942;2024-03-08T03:19:17;50.63;;;34.27;;
37445;SDS011;23307;51.136;14.942;2024-03-08T03:21:42;47.47;;;34.30;;
37445;SDS011;23307;51.136;14.942;2024-03-08T03:24:08;49.43;;;35.23;;
37445;SDS011;23307;51.136;14.942;2024-03-08T03:26:37;51.23;;;34.80;;
37445;SDS011;23307;51.136;14.942;2024-03-08T03:29:06;47.00;;;33.87;;
37445;SDS011;23307;51.136;14.942;2024-03-08T03:31:33;46.93;;;33.00;;
37445;SDS011;23307;51.136;14.942;2024-03-08T03:33:59;48.50;;;34.13;;
37445;SDS011;23307;51.136;14.942;2024-03-08T03:36:32;49.60;;;34.10;;
37445;SDS011;23307;51.136;14.942;2024-03-08T03:38:58;49.23;;;35.13;;
37445;SDS011;23307;51.136;14.942;2024-03-08T03:41:35;50.67;;;34.37;;
37445;SDS011;23307;51.136;14.942;2024-03-08T03:44:01;49.00;;;33.23;;
37445;SDS011;23307;51.136;14.942;2024-03-08T03:46:26;50.20;;;35.60;;
37445;SDS011;23307;51.136;14.942;2024-03-08T03:48:53;49.63;;;34.70;;
37445;SDS011;23307;51.136;14.942;2024-03-08T03:51:21;48.40;;;33.47;;
37445;SDS011;23307;51.136;14.942;2024-03-08T03:53:46;49.30;;;34.77;;
37445;SDS011;23307;51.136;14.942;2024-03-08T03:56:12;52.00;;;35.60;;
37445;SDS011;23307;51.136;14.942;2024-03-08T03:58:37;51.50;;;36.07;;
37445;SDS011;23307;51.136;14.942;2024-03-08T04:01:04;47.47;;;34.00;;
37445;SDS011;23307;51.136;14.942;2024-03-08T04:03:30;45.23;;;33.63;;
37445;SDS011;23307;51.136;14.942;2024-03-08T04:05:56;50.67;;;34.77;;
37445;SDS011;23307;51.136;14.942;2024-03-08T04:08:21;49.40;;;35.03;;
37445;SDS011;23307;51.136;14.942;2024-03-08T04:10:48;44.23;;;32.63;;
37445;SDS011;23307;51.136;14.942;2024-03-08T04:13:14;49.50;;;33.67;;
37445;SDS011;23307;51.136;14.942;2024-03-08T04:15:40;50.07;;;33.83;;
37445;SDS011;23307;51.136;14.942;2024-03-08T04:18:08;47.93;;;33.47;;
37445;SDS011;23307;51.136;14.942;2024-03-08T04:20:33;48.10;;;33.23;;
37445;SDS011;23307;51.136;14.942;2024-03-08T04:22:58;49.87;;;35.93;;
37445;SDS011;23307;51.136;14.942;2024-03-08T04:25:24;53.23;;;36.23;;
37445;SDS011;23307;51.136;14.942;2024-03-08T04:27:49;48.47;;;34.67;;
37445;SDS011;23307;51.136;14.942;2024-03-08T04:30:17;52.07;;;36.60;;
37445;SDS011;23307;51.136;14.942;2024-03-08T04:32:42;48.97;;;35.73;;
37445;SDS011;23307;51.136;14.942;2024-03-08T04:35:08;49.23;;;34.87;;
37445;SDS011;23307;51.136;14.942;2024-03-08T04:37:34;47.50;;;33.20;;
37445;SDS011;23307;51.136;14.942;2024-03-08T04:39:59;48.13;;;34.63;;
37445;SDS011;23307;51.136;14.942;2024-03-08T04:42:25;51.00;;;35.53;;
37445;SDS011;23307;51.136;14.942;2024-03-08T04:44:53;47.70;;;34.27;;
37445;SDS011;23307;51.136;14.942;2024-03-08T04:47:19;49.93;;;35.37;;
37445;SDS011;23307;51.136;14.942;2024-03-08T04:49:45;50.03;;;34.13;;
37445;SDS011;23307;51.136;14.942;2024-03-08T04:52:11;46.00;;;33.93;;
37445;SDS011;23307;51.136;14.942;2024-03-08T04:54:37;46.80;;;33.43;;
37445;SDS011;23307;51.136;14.942;2024-03-08T04:57:02;47.80;;;34.13;;
37445;SDS011;23307;51.136;14.942;2024-03-08T04:59:29;48.00;;;32.17;;
37445;SDS011;23307;51.136;14.942;2024-03-08T05:01:55;46.47;;;33.63;;
37445;SDS011;23307;51.136;14.942;2024-03-08T05:04:21;45.07;;;33.07;;
37445;SDS011;23307;51.136;14.942;2024-03-08T05:06:47;45.40;;;33.23;;
37445;SDS011;23307;51.136;14.942;2024-03-08T05:09:13;46.37;;;34.13;;
37445;SDS011;23307;51.136;14.942;2024-03-08T05:11:42;48.47;;;34.47;;
37445;SDS011;23307;51.136;14.942;2024-03-08T05:14:09;48.60;;;35.00;;
37445;SDS011;23307;51.136;14.942;2024-03-08T05:16:35;49.80;;;34.70;;
37445;SDS011;23307;51.136;14.942;2024-03-08T05:19:01;47.00;;;33.03;;
37445;SDS011;23307;51.136;14.942;2024-03-08T05:21:27;49.37;;;34.97;;
37445;SDS011;23307;51.136;14.942;2024-03-08T05:23:54;51.87;;;34.80;;
37445;SDS011;23307;51.136;14.942;2024-03-08T05:26:19;47.27;;;35.50;;
37445;SDS011;23307;51.136;14.942;2024-03-08T05:28:45;46.20;;;33.03;;
37445;SDS011;23307;51.136;14.942;2024-03-08T05:31:17;46.83;;;33.70;;
37445;SDS011;23307;51.136;14.942;2024-03-08T05:33:49;49.73;;;33.70;;
37445;SDS011;23307;51.136;14.942;2024-03-08T05:36:15;49.17;;;33.43;;
37445;SDS011;23307;51.136;14.942;2024-03-08T05:38:42;44.43;;;32.80;;
37445;SDS011;23307;51.136;14.942;2024-03-08T05:41:08;48.47;;;34.10;;
37445;SDS011;23307;51.136;14.942;2024-03-08T05:43:34;48.50;;;34.27;;
37445;SDS011;23307;51.136;14.942;2024-03-08T05:45:59;49.60;;;34.53;;
37445;SDS011;23307;51.136;14.942;2024-03-08T05:48:25;49.40;;;35.53;;
37445;SDS011;23307;51.136;14.942;2024-03-08T05:50:50;53.50;;;36.80;;
37445;SDS011;23307;51.136;14.942;2024-03-08T05:53:16;51.87;;;36.07;;
37445;SDS011;23307;51.136;14.942;2024-03-08T05:55:41;51.17;;;35.00;;
37445;SDS011;23307;51.136;14.942;2024-03-08T05:58:07;47.73;;;34.93;;
37445;SDS011;23307;51.136;14.942;2024-03-08T06:00:33;50.73;;;34.33;;
37445;SDS011;23307;51.136;14.942;2024-03-08T06:02:59;47.90;;;33.40;;
37445;SDS011;23307;51.136;14.942;2024-03-08T06:05:24;43.57;;;32.73;;
37445;SDS011;23307;51.136;14.942;2024-03-08T06:07:50;46.77;;;32.67;;
37445;SDS011;23307;51.136;14.942;2024-03-08T06:10:18;46.00;;;34.07;;
37445;SDS011;23307;51.136;14.942;2024-03-08T06:12:44;47.77;;;33.50;;
37445;SDS011;23307;51.136;14.942;2024-03-08T06:15:10;47.63;;;33.33;;
37445;SDS011;23307;51.136;14.942;2024-03-08T06:17:39;50.47;;;33.30;;
37445;SDS011;23307;51.136;14.942;2024-03-08T06:20:07;50.30;;;34.27;;
37445;SDS011;23307;51.136;14.942;2024-03-08T06:22:37;51.27;;;34.83;;
37445;SDS011;23307;51.136;14.942;2024-03-08T06:25:06;53.57;;;36.80;;
37445;SDS011;23307;51.136;14.942;2024-03-08T06:27:41;52.97;;;36.10;;
37445;SDS011;23307;51.136;14.942;2024-03-08T06:30:07;50.47;;;34.67;;
37445;SDS011;23307;51.136;14.942;2024-03-08T06:32:36;48.33;;;34.83;;
37445;SDS011;23307;51.136;14.942;2024-03-08T06:35:03;49.87;;;34.93;;
37445;SDS011;23307;51.136;14.942;2024-03-08T06:37:33;49.20;;;34.10;;
37445;SDS011;23307;51.136;14.942;2024-03-08T06:39:59;47.53;;;34.60;;
37445;SDS011;23307;51.136;14.942;2024-03-08T06:42:25;49.07;;;35.60;;
37445;SDS011;23307;51.136;14.942;2024-03-08T06:44:54;48.63;;;34.63;;
37445;SDS011;23307;51.136;14.942;2024-03-08T06:47:24;52.30;;;36.17;;
37445;SDS011;23307;51.136;14.942;2024-03-08T06:49:50;53.33;;;37.03;;
37445;SDS011;23307;51.136;14.942;2024-03-08T06:52:17;51.00;;;36.93;;
37445;SDS011;23307;51.136;14.942;2024-03-08T06:54:42;53.83;;;37.97;;
37445;SDS011;23307;51.136;14.942;2024-03-08T06:57:08;55.57;;;37.73;;
37445;SDS011;23307;51.136;14.942;2024-03-08T06:59:35;54.40;;;38.97;;
37445;SDS011;23307;51.136;14.942;2024-03-08T07:02:01;51.37;;;34.63;;
37445;SDS011;23307;51.136;14.942;2024-03-08T07:04:27;49.40;;;34.63;;
37445;SDS011;23307;51.136;14.942;2024-03-08T07:06:55;45.30;;;32.97;;
37445;SDS011;23307;51.136;14.942;2024-03-08T07:09:21;47.53;;;33.73;;
37445;SDS011;23307;51.136;14.942;2024-03-08T07:11:47;48.00;;;34.90;;
37445;SDS011;23307;51.136;14.942;2024-03-08T07:14:12;50.80;;;34.33;;
37445;SDS011;23307;51.136;14.942;2024-03-08T07:16:40;47.00;;;32.80;;
37445;SDS011;23307;51.136;14.942;2024-03-08T07:19:06;50.13;;;34.97;;
37445;SDS011;23307;51.136;14.942;2024-03-08T07:21:32;50.97;;;34.40;;
37445;SDS011;23307;51.136;14.942;2024-03-08T07:23:57;48.90;;;33.73;;
37445;SDS011;23307;51.136;14.942;2024-03-08T07:26:26;47.67;;;34.63;;
37445;SDS011;23307;51.136;14.942;2024-03-08T07:28:51;49.37;;;35.03;;
37445;SDS011;23307;51.136;14.942;2024-03-08T07:31:19;48.50;;;34.17;;
37445;SDS011;23307;51.136;14.942;2024-03-08T07:33:50;46.70;;;33.33;;
37445;SDS011;23307;51.136;14.942;2024-03-08T07:36:16;49.83;;;33.33;;
37445;SDS011;23307;51.136;14.942;2024-03-08T07:38:42;46.63;;;32.77;;
37445;SDS011;23307;51.136;14.942;2024-03-08T07:41:07;45.77;;;33.67;;
37445;SDS011;23307;51.136;14.942;2024-03-08T07:43:33;48.57;;;34.43;;
37445;SDS011;23307;51.136;14.942;2024-03-08T07:45:59;52.47;;;35.33;;
37445;SDS011;23307;51.136;14.942;2024-03-08T07:48:24;48.70;;;34.30;;
37445;SDS011;23307;51.136;14.942;2024-03-08T07:50:50;51.73;;;35.60;;
37445;SDS011;23307;51.136;14.942;2024-03-08T07:53:16;49.47;;;34.80;;
37445;SDS011;23307;51.136;14.942;2024-03-08T07:55:41;49.73;;;34.13;;
37445;SDS011;23307;51.136;14.942;2024-03-08T07:58:08;45.33;;;33.10;;
37445;SDS011;23307;51.136;14.942;2024-03-08T08:00:35;47.27;;;33.93;;
37445;SDS011;23307;51.136;14.942;2024-03-08T08:03:01;48.23;;;34.03;;
37445;SDS011;23307;51.136;14.942;2024-03-08T08:05:27;47.13;;;32.43;;
37445;SDS011;23307;51.136;14.942;2024-03-08T08:07:53;47.97;;;32.13;;
37445;SDS011;23307;51.136;14.942;2024-03-08T08:10:18;48.87;;;32.37;;
37445;SDS011;23307;51.136;14.942;2024-03-08T08:12:47;49.53;;;33.27;;
37445;SDS011;23307;51.136;14.942;2024-03-08T08:15:13;49.70;;;33.87;;
37445;SDS011;23307;51.136;14.942;2024-03-08T08:17:40;48.93;;;33.03;;
37445;SDS011;23307;51.136;14.942;2024-03-08T08:20:06;47.83;;;33.27;;
37445;SDS011;23307;51.136;14.942;2024-03-08T08:22:32;43.93;;;31.03;;
37445;SDS011;23307;51.136;14.942;2024-03-08T08:24:57;41.10;;;29.77;;
37445;SDS011;23307;51.136;14.942;2024-03-08T08:27:23;43.00;;;30.83;;
37445;SDS011;23307;51.136;14.942;2024-03-08T08:29:51;42.60;;;30.07;;
37445;SDS011;23307;51.136;14.942;2024-03-08T08:32:16;42.67;;;30.27;;
37445;SDS011;23307;51.136;14.942;2024-03-08T08:34:43;44.23;;;30.73;;
37445;SDS011;23307;51.136;14.942;2024-03-08T08:37:09;43.07;;;30.80;;
37445;SDS011;23307;51.136;14.942;2024-03-08T08:39:35;42.93;;;28.63;;
37445;SDS011;23307;51.136;14.942;2024-03-08T08:42:00;47.13;;;31.30;;
37445;SDS011;23307;51.136;14.942;2024-03-08T08:44:27;43.23;;;29.50;;
37445;SDS011;23307;51.136;14.942;2024-03-08T08:46:53;41.13;;;29.57;;
37445;SDS011;23307;51.136;14.942;2024-03-08T08:49:18;38.63;;;27.50;;
37445;SDS011;23307;51.136;14.942;2024-03-08T08:51:51;41.73;;;27.30;;
37445;SDS011;23307;51.136;14.942;2024-03-08T08:54:17;37.50;;;26.07;;
37445;SDS011;23307;51.136;14.942;2024-03-08T08:56:43;35.80;;;25.63;;
37445;SDS011;23307;51.136;14.942;2024-03-08T08:59:09;41.60;;;27.17;;
37445;SDS011;23307;51.136;14.942;2024-03-08T09:01:38;35.27;;;25.63;;
37445;SDS011;23307;51.136;14.942;2024-03-08T09:04:04;37.97;;;26.33;;
37445;SDS011;23307;51.136;14.942;2024-03-08T09:06:31;32.00;;;23.60;;
37445;SDS011;23307;51.136;14.942;2024-03-08T09:08:56;37.33;;;26.40;;
37445;SDS011;23307;51.136;14.942;2024-03-08T09:11:22;36.17;;;25.10;;
37445;SDS011;23307;51.136;14.942;2024-03-08T09:13:50;34.07;;;24.03;;
37445;SDS011;23307;51.136;14.942;2024-03-08T09:16:15;32.10;;;23.43;;
37445;SDS011;23307;51.136;14.942;2024-03-08T09:18:41;35.90;;;24.40;;
37445;SDS011;23307;51.136;14.942;2024-03-08T09:21:06;30.57;;;22.20;;
37445;SDS011;23307;51.136;14.942;2024-03-08T09:23:34;30.87;;;22.53;;
37445;SDS011;23307;51.136;14.942;2024-03-08T09:26:03;34.70;;;23.33;;
37445;SDS011;23307;51.136;14.942;2024-03-08T09:28:29;31.00;;;23.33;;
37445;SDS011;23307;51.136;14.942;2024-03-08T09:30:54;33.30;;;23.60;;
37445;SDS011;23307;51.136;14.942;2024-03-08T09:33:20;29.83;;;22.50;;
37445;SDS011;23307;51.136;14.942;2024-03-08T09:35:46;32.07;;;23.03;;
37445;SDS011;23307;51.136;14.942;2024-03-08T09:38:13;30.93;;;23.07;;
37445;SDS011;23307;51.136;14.942;2024-03-08T09:40:42;29.27;;;20.42;;
37445;SDS011;23307;51.136;14.942;2024-03-08T09:43:09;33.20;;;22.80;;
37445;SDS011;23307;51.136;14.942;2024-03-08T09:45:36;28.23;;;20.13;;
37445;SDS011;23307;51.136;14.942;2024-03-08T09:48:06;31.30;;;22.20;;
37445;SDS011;23307;51.136;14.942;2024-03-08T09:50:37;30.83;;;22.97;;
37445;SDS011;23307;51.136;14.942;2024-03-08T09:53:03;30.80;;;22.80;;
37445;SDS011;23307;51.136;14.942;2024-03-08T09:55:29;31.13;;;22.00;;
37445;SDS011;23307;51.136;14.942;2024-03-08T09:57:59;33.13;;;23.27;;
37445;SDS011;23307;51.136;14.942;2024-03-08T10:00:45;32.27;;;22.43;;
37445;SDS011;23307;51.136;14.942;2024-03-08T10:03:10;29.00;;;21.90;;
37445;SDS011;23307;51.136;14.942;2024-03-08T10:05:36;29.10;;;22.50;;
37445;SDS011;23307;51.136;14.942;2024-03-08T10:08:01;29.58;;;21.60;;
37445;SDS011;23307;51.136;14.942;2024-03-08T10:10:27;32.63;;;23.50;;
37445;SDS011;23307;51.136;14.942;2024-03-08T10:12:53;29.85;;;21.08;;
37445;SDS011;23307;51.136;14.942;2024-03-08T10:15:19;31.48;;;21.88;;
37445;SDS011;23307;51.136;14.942;2024-03-08T10:17:45;29.13;;;21.45;;
37445;SDS011;23307;51.136;14.942;2024-03-08T10:20:17;33.45;;;22.05;;
37445;SDS011;23307;51.136;14.942;2024-03-08T10:22:43;31.60;;;23.85;;
37445;SDS011;23307;51.136;14.942;2024-03-08T10:25:09;29.30;;;23.10;;
37445;SDS011;23307;51.136;14.942;2024-03-08T10:27:37;29.80;;;21.92;;
37445;SDS011;23307;51.136;14.942;2024-03-08T10:30:04;32.88;;;23.38;;
37445;SDS011;23307;51.136;14.942;2024-03-08T10:32:33;31.58;;;23.90;;
37445;SDS011;23307;51.136;14.942;2024-03-08T10:34:59;31.52;;;23.20;;
37445;SDS011;23307;51.136;14.942;2024-03-08T10:37:24;30.45;;;23.30;;
37445;SDS011;23307;51.136;14.942;2024-03-08T10:40:03;29.48;;;22.30;;
37445;SDS011;23307;51.136;14.942;2024-03-08T10:42:37;27.52;;;21.13;;
37445;SDS011;23307;51.136;14.942;2024-03-08T10:45:49;27.20;;;20.73;;
37445;SDS011;23307;51.136;14.942;2024-03-08T10:48:04;27.75;;;21.27;;
37445;SDS011;23307;51.136;14.942;2024-03-08T10:50:53;29.05;;;21.88;;
37445;SDS011;23307;51.136;14.942;2024-03-08T10:53:20;25.85;;;20.75;;
37445;SDS011;23307;51.136;14.942;2024-03-08T10:55:47;26.80;;;21.73;;
37445;SDS011;23307;51.136;14.942;2024-03-08T10:58:18;29.95;;;22.23;;
37445;SDS011;23307;51.136;14.942;2024-03-08T11:00:47;28.33;;;22.20;;
37445;SDS011;23307;51.136;14.942;2024-03-08T11:06:08;29.48;;;20.50;;
37445;SDS011;23307;51.136;14.942;2024-03-08T11:08:37;28.70;;;21.83;;
37445;SDS011;23307;51.136;14.942;2024-03-08T11:11:04;27.50;;;20.48;;
37445;SDS011;23307;51.136;14.942;2024-03-08T11:13:42;33.13;;;23.40;;
37445;SDS011;23307;51.136;14.942;2024-03-08T11:16:10;29.27;;;22.90;;
37445;SDS011;23307;51.136;14.942;2024-03-08T11:18:37;31.40;;;22.73;;
37445;SDS011;23307;51.136;14.942;2024-03-08T11:21:03;28.13;;;22.38;;
37445;SDS011;23307;51.136;14.942;2024-03-08T11:23:35;28.58;;;21.35;;
37445;SDS011;23307;51.136;14.942;2024-03-08T11:26:01;27.45;;;21.40;;
37445;SDS011;23307;51.136;14.942;2024-03-08T11:28:29;26.60;;;20.77;;
37445;SDS011;23307;51.136;14.942;2024-03-08T11:33:31;28.77;;;22.35;;
37445;SDS011;23307;51.136;14.942;2024-03-08T11:38:47;31.90;;;23.73;;
37445;SDS011;23307;51.136;14.942;2024-03-08T11:41:13;25.83;;;20.67;;
37445;SDS011;23307;51.136;14.942;2024-03-08T11:43:40;29.38;;;22.73;;
37445;SDS011;23307;51.136;14.942;2024-03-08T11:46:16;30.70;;;23.13;;
37445;SDS011;23307;51.136;14.942;2024-03-08T11:48:43;28.50;;;21.73;;
37445;SDS011;23307;51.136;14.942;2024-03-08T11:51:13;28.73;;;22.58;;
37445;SDS011;23307;51.136;14.942;2024-03-08T11:53:40;32.33;;;24.05;;
37445;SDS011;23307;51.136;14.942;2024-03-08T11:56:12;28.35;;;22.27;;
37445;SDS011;23307;51.136;14.942;2024-03-08T11:58:39;28.77;;;22.65;;
37445;SDS011;23307;51.136;14.942;2024-03-08T12:01:10;31.55;;;23.58;;
37445;SDS011;23307;51.136;14.942;2024-03-08T12:03:37;29.13;;;22.25;;
37445;SDS011;23307;51.136;14.942;2024-03-08T12:06:09;28.63;;;23.27;;
37445;SDS011;23307;51.136;14.942;2024-03-08T12:08:38;29.98;;;22.70;;
37445;SDS011;23307;51.136;14.942;2024-03-08T12:11:04;31.13;;;24.20;;
37445;SDS011;23307;51.136;14.942;2024-03-08T12:13:31;30.50;;;24.17;;
37445;SDS011;23307;51.136;14.942;2024-03-08T12:15:58;28.13;;;24.02;;
37445;SDS011;23307;51.136;14.942;2024-03-08T12:18:28;32.38;;;23.85;;
37445;SDS011;23307;51.136;14.942;2024-03-08T12:21:09;32.88;;;25.98;;
37445;SDS011;23307;51.136;14.942;2024-03-08T12:23:36;33.28;;;26.58;;
37445;SDS011;23307;51.136;14.942;2024-03-08T12:28:48;31.73;;;25.73;;
37445;SDS011;23307;51.136;14.942;2024-03-08T12:31:13;31.23;;;25.17;;
37445;SDS011;23307;51.136;14.942;2024-03-08T12:33:54;31.05;;;25.65;;
37445;SDS011;23307;51.136;14.942;2024-03-08T12:36:24;82.47;;;50.13;;
37445;SDS011;23307;51.136;14.942;2024-03-08T12:38:50;27.30;;;22.83;;
37445;SDS011;23307;51.136;14.942;2024-03-08T12:41:16;32.28;;;25.45;;
37445;SDS011;23307;51.136;14.942;2024-03-08T12:43:43;30.38;;;24.23;;
37445;SDS011;23307;51.136;14.942;2024-03-08T12:46:14;30.67;;;24.30;;
37445;SDS011;23307;51.136;14.942;2024-03-08T12:48:40;30.90;;;26.00;;
37445;SDS011;23307;51.136;14.942;2024-03-08T12:51:08;32.38;;;25.95;;
37445;SDS011;23307;51.136;14.942;2024-03-08T12:53:35;33.72;;;26.45;;
37445;SDS011;23307;51.136;14.942;2024-03-08T12:56:00;32.92;;;27.50;;
37445;SDS011;23307;51.136;14.942;2024-03-08T12:58:26;30.70;;;27.13;;
37445;SDS011;23307;51.136;14.942;2024-03-08T13:00:52;31.88;;;26.60;;
37445;SDS011;23307;51.136;14.942;2024-03-08T13:03:17;31.15;;;26.23;;
37445;SDS011;23307;51.136;14.942;2024-03-08T13:05:43;33.00;;;26.40;;
37445;SDS011;23307;51.136;14.942;2024-03-08T13:08:08;31.80;;;26.35;;
37445;SDS011;23307;51.136;14.942;2024-03-08T13:10:38;33.97;;;27.23;;
37445;SDS011;23307;51.136;14.942;2024-03-08T13:13:04;31.88;;;26.55;;
37445;SDS011;23307;51.136;14.942;2024-03-08T13:15:29;33.85;;;25.85;;
37445;SDS011;23307;51.136;14.942;2024-03-08T13:17:55;34.75;;;26.80;;
37445;SDS011;23307;51.136;14.942;2024-03-08T13:20:24;31.42;;;27.45;;
37445;SDS011;23307;51.136;14.942;2024-03-08T13:22:53;32.58;;;28.40;;
37445;SDS011;23307;51.136;14.942;2024-03-08T13:25:18;34.45;;;28.08;;
37445;SDS011;23307;51.136;14.942;2024-03-08T13:27:45;33.53;;;26.98;;
37445;SDS011;23307;51.136;14.942;2024-03-08T13:30:11;33.25;;;27.00;;
37445;SDS011;23307;51.136;14.942;2024-03-08T13:32:43;35.60;;;28.35;;
37445;SDS011;23307;51.136;14.942;2024-03-08T13:35:09;32.28;;;26.88;;
37445;SDS011;23307;51.136;14.942;2024-03-08T13:37:39;31.02;;;26.45;;
37445;SDS011;23307;51.136;14.942;2024-03-08T13:40:05;34.65;;;26.80;;
37445;SDS011;23307;51.136;14.942;2024-03-08T13:42:35;38.10;;;28.48;;
37445;SDS011;23307;51.136;14.942;2024-03-08T13:45:05;37.80;;;28.65;;
37445;SDS011;23307;51.136;14.942;2024-03-08T13:47:34;39.35;;;30.98;;
37445;SDS011;23307;51.136;14.942;2024-03-08T13:49:59;32.67;;;27.27;;
37445;SDS011;23307;51.136;14.942;2024-03-08T13:52:25;32.03;;;27.25;;
37445;SDS011;23307;51.136;14.942;2024-03-08T13:54:54;32.97;;;27.83;;
37445;SDS011;23307;51.136;14.942;2024-03-08T13:57:19;36.85;;;30.92;;
37445;SDS011;23307;51.136;14.942;2024-03-08T13:59:45;34.10;;;29.52;;
37445;SDS011;23307;51.136;14.942;2024-03-08T14:02:11;36.85;;;28.73;;
37445;SDS011;23307;51.136;14.942;2024-03-08T14:04:38;38.65;;;29.58;;
37445;SDS011;23307;51.136;14.942;2024-03-08T14:07:05;32.63;;;28.60;;
37445;SDS011;23307;51.136;14.942;2024-03-08T14:09:33;36.45;;;29.92;;
37445;SDS011;23307;51.136;14.942;2024-03-08T14:12:02;36.03;;;28.52;;
37445;SDS011;23307;51.136;14.942;2024-03-08T14:14:32;33.38;;;28.38;;
37445;SDS011;23307;51.136;14.942;2024-03-08T14:17:00;32.30;;;28.33;;
37445;SDS011;23307;51.136;14.942;2024-03-08T14:19:26;33.42;;;27.60;;
37445;SDS011;23307;51.136;14.942;2024-03-08T14:21:52;35.35;;;28.25;;
37445;SDS011;23307;51.136;14.942;2024-03-08T14:24:18;33.05;;;28.15;;